Time;durP1;ratioP1;P1;durP2;ratioP2;P2;SDS_P1;SDS_P2;PMS_P1;PMS_P2;Temp;Humidity;BMP_temperature;BMP_pressure;BME280_temperature;BME280_humidity;BME280_pressure;Samples;Min_cycle;Max_cycle;Signal;HPM_P1;HPM_P2
2023/07/10 00:01:28;;;;;;;14.43;9.93;;;;;;;;;;5030146;28;20459;-64
2023/07/10 00:03:54;;;;;;;16.58;10.20;;;;;;;;;;5028897;28;20076;-64
2023/07/10 00:06:21;;;;;;;12.43;9.13;;;;;;;;;;5028571;28;20114;-64
2023/07/10 00:08:47;;;;;;;12.75;8.40;;;;;;;;;;5027690;28;20029;-64
2023/07/10 00:11:39;;;;;;;14.43;9.50;;;;;;;;;;5024028;28;20482;-64
2023/07/10 00:14:06;;;;;;;12.82;8.35;;;;;;;;;;5024315;28;20038;-64
2023/07/10 00:16:33;;;;;;;14.43;8.95;;;;;;;;;;5027291;28;20486;-65
2023/07/10 00:18:59;;;;;;;12.65;8.63;;;;;;;;;;5019398;28;20048;-65
2023/07/10 00:21:25;;;;;;;14.48;8.80;;;;;;;;;;5022662;28;20699;-65
2023/07/10 00:23:51;;;;;;;14.52;8.93;;;;;;;;;;5023153;28;20054;-64
2023/07/10 00:26:21;;;;;;;13.38;8.68;;;;;;;;;;5026560;28;20060;-64
2023/07/10 00:28:49;;;;;;;13.75;8.13;;;;;;;;;;5024234;28;20041;-64
2023/07/10 00:31:15;;;;;;;10.90;8.45;;;;;;;;;;5026804;28;20034;-64
2023/07/10 00:33:41;;;;;;;11.30;8.25;;;;;;;;;;5022649;28;20037;-65
2023/07/10 00:36:25;;;;;;;15.60;8.85;;;;;;;;;;5025967;28;20120;-65
2023/07/10 00:38:51;;;;;;;14.57;9.27;;;;;;;;;;5024949;28;20080;-65
2023/07/10 00:41:17;;;;;;;12.13;7.32;;;;;;;;;;5023584;28;20037;-64
2023/07/10 00:43:46;;;;;;;11.82;7.95;;;;;;;;;;5027780;28;20043;-65
2023/07/10 00:46:12;;;;;;;11.38;8.75;;;;;;;;;;5025078;28;20041;-64
2023/07/10 00:48:40;;;;;;;10.90;9.32;;;;;;;;;;5024531;28;20033;-64
2023/07/10 00:51:11;;;;;;;12.18;9.07;;;;;;;;;;5023898;28;20609;-64
2023/07/10 00:53:41;;;;;;;9.45;6.97;;;;;;;;;;5024880;28;20102;-64
2023/07/10 00:56:10;;;;;;;15.05;8.23;;;;;;;;;;5017716;28;20041;-64
2023/07/10 00:58:40;;;;;;;10.25;8.20;;;;;;;;;;5027360;28;20034;-64
2023/07/10 01:01:07;;;;;;;12.38;8.13;;;;;;;;;;5022695;28;20046;-64
2023/07/10 01:03:34;;;;;;;11.75;7.82;;;;;;;;;;5026816;28;20102;-64
2023/07/10 01:06:03;;;;;;;11.18;7.45;;;;;;;;;;5022990;28;20029;-64
2023/07/10 01:08:31;;;;;;;13.77;8.20;;;;;;;;;;5026075;28;20530;-65
2023/07/10 01:10:57;;;;;;;12.27;7.63;;;;;;;;;;5026069;28;20053;-64
2023/07/10 01:13:23;;;;;;;12.13;8.18;;;;;;;;;;5027189;28;20132;-64
2023/07/10 01:15:49;;;;;;;8.63;6.70;;;;;;;;;;5022447;28;20124;-65
2023/07/10 01:18:16;;;;;;;9.88;7.93;;;;;;;;;;5027933;28;20521;-64
2023/07/10 01:20:49;;;;;;;9.05;6.95;;;;;;;;;;5026310;28;20060;-64
2023/07/10 01:23:16;;;;;;;11.40;7.60;;;;;;;;;;5031443;28;20156;-64
2023/07/10 01:25:46;;;;;;;11.80;7.78;;;;;;;;;;5024868;28;20037;-64
2023/07/10 01:28:14;;;;;;;10.70;8.77;;;;;;;;;;5027142;28;20045;-65
2023/07/10 01:30:43;;;;;;;12.52;7.40;;;;;;;;;;5025465;28;20423;-65
2023/07/10 01:33:17;;;;;;;11.43;7.30;;;;;;;;;;5028615;28;20072;-64
2023/07/10 01:35:45;;;;;;;7.90;7.03;;;;;;;;;;5040952;28;20861;-64
2023/07/10 01:38:15;;;;;;;13.52;7.22;;;;;;;;;;5036384;28;20045;-65
2023/07/10 01:40:44;;;;;;;11.45;7.78;;;;;;;;;;5028140;28;20496;-64
2023/07/10 01:43:10;;;;;;;10.00;7.32;;;;;;;;;;5025236;28;20038;-65
2023/07/10 01:45:46;;;;;;;9.65;6.75;;;;;;;;;;5024846;28;20530;-65
2023/07/10 01:48:13;;;;;;;10.88;7.18;;;;;;;;;;5025234;28;20092;-65
2023/07/10 01:50:39;;;;;;;11.73;6.65;;;;;;;;;;5027465;28;20085;-65
2023/07/10 01:53:07;;;;;;;11.48;6.35;;;;;;;;;;5023203;28;20049;-65
2023/07/10 01:55:38;;;;;;;6.75;5.55;;;;;;;;;;5021491;28;20061;-65
2023/07/10 01:58:04;;;;;;;9.60;5.43;;;;;;;;;;5031442;28;20061;-65
2023/07/10 02:00:31;;;;;;;10.75;5.75;;;;;;;;;;5025915;28;20042;-65
2023/07/10 02:02:57;;;;;;;7.22;5.50;;;;;;;;;;5020259;28;20117;-65
2023/07/10 02:05:23;;;;;;;12.32;6.00;;;;;;;;;;5025688;28;20117;-65
2023/07/10 02:07:49;;;;;;;10.50;6.93;;;;;;;;;;5022462;28;20041;-65
2023/07/10 02:10:15;;;;;;;7.18;5.53;;;;;;;;;;5030347;28;20041;-65
2023/07/10 02:12:41;;;;;;;11.38;5.85;;;22.10;99.90;;;;;;5016272;28;20452;-65
2023/07/10 02:15:07;;;;;;;10.32;6.05;;;21.20;99.90;;;;;;5024617;28;20044;-65
2023/07/10 02:17:33;;;;;;;7.72;4.97;;;21.10;99.90;;;;;;5025845;28;20044;-64
2023/07/10 02:19:59;;;;;;;8.10;4.68;;;;;;;;;;5023934;28;20456;-65
2023/07/10 02:22:25;;;;;;;7.22;5.13;;;;;;;;;;5026377;28;20054;-65
2023/07/10 02:24:52;;;;;;;6.47;4.07;;;;;;;;;;5026645;28;20651;-64
2023/07/10 02:27:18;;;;;;;5.63;3.85;;;;;;;;;;5023634;28;20558;-65
2023/07/10 02:29:44;;;;;;;5.45;3.45;;;;;;;;;;5027243;28;20045;-65
2023/07/10 02:32:10;;;;;;;5.70;3.67;;;;;;;;;;5022474;28;20641;-63
2023/07/10 02:34:36;;;;;;;4.97;3.80;;;;;;;;;;5022698;28;20088;-65
2023/07/10 02:37:02;;;;;;;5.25;3.58;;;;;;;;;;5022141;28;20743;-65
2023/07/10 02:39:28;;;;;;;14.13;3.72;;;;;;;;;;5029283;28;20550;-65
2023/07/10 02:41:54;;;;;;;4.72;2.63;;;;;;;;;;5020351;28;20141;-65
2023/07/10 02:44:20;;;;;;;4.55;2.95;;;;;;;;;;5024284;28;20116;-65
2023/07/10 02:46:47;;;;;;;5.68;2.55;;;;;;;;;;5027172;28;20094;-65
2023/07/10 02:49:13;;;;;;;4.60;2.63;;;;;;;;;;5025410;28;20081;-65
2023/07/10 02:51:39;;;;;;;5.82;3.35;;;;;;;;;;5030701;28;20037;-65
2023/07/10 02:54:12;;;;;;;4.47;2.78;;;;;;;;;;5026529;28;20038;-65
2023/07/10 02:56:38;;;;;;;4.85;3.20;;;;;;;;;;5028827;28;20045;-65
2023/07/10 02:59:04;;;;;;;6.30;3.38;;;;;;;;;;5026647;28;20478;-65
2023/07/10 03:01:30;;;;;;;3.28;2.20;;;;;;;;;;5028383;28;20029;-65
2023/07/10 03:03:56;;;;;;;5.28;3.00;;;;;;;;;;5026928;28;20527;-65
2023/07/10 03:06:24;;;;;;;4.97;2.90;;;;;;;;;;5024060;28;20230;-65
2023/07/10 03:08:50;;;;;;;5.00;3.05;;;;;;;;;;5032216;28;20045;-64
2023/07/10 03:11:16;;;;;;;4.38;3.30;;;;;;;;;;5031442;28;20033;-65
2023/07/10 03:13:43;;;;;;;6.57;3.90;;;;;;;;;;5027376;28;20087;-65
2023/07/10 03:16:13;;;;;;;5.32;3.70;;;;;;;;;;5028072;28;20030;-64
2023/07/10 03:18:39;;;;;;;7.55;3.45;;;;;;;;;;5021050;28;20056;-65
2023/07/10 03:21:06;;;;;;;9.25;3.85;;;;;;;;;;5038491;28;20083;-65
2023/07/10 03:23:32;;;;;;;4.90;3.58;;;;;;;;;;5023446;28;20069;-65
2023/07/10 03:25:58;;;;;;;7.15;4.07;;;;;;;;;;5028820;28;20046;-65
2023/07/10 03:28:24;;;;;;;6.22;3.97;;;;;;;;;;5027679;28;20458;-65
2023/07/10 03:30:50;;;;;;;6.00;3.60;;;21.10;99.90;;;;;;5044942;28;20047;-65
2023/07/10 03:33:17;;;;;;;5.07;3.42;;;20.70;99.90;;;;;;5021916;28;20474;-65
2023/07/10 03:35:48;;;;;;;6.75;4.07;;;20.60;99.90;;;;;;5027177;28;20037;-65
2023/07/10 03:38:15;;;;;;;6.10;3.45;;;20.70;99.90;;;;;;5021572;28;20049;-64
2023/07/10 03:40:56;;;;;;;7.50;4.10;;;20.60;99.90;;;;;;5028432;28;20506;-64
2023/07/10 03:43:22;;;;;;;5.80;3.08;;;20.60;99.90;;;;;;5021698;28;20034;-65
2023/07/10 03:45:48;;;;;;;5.13;3.60;;;20.50;99.90;;;;;;5034458;28;20427;-64
2023/07/10 03:48:14;;;;;;;3.63;2.95;;;20.60;99.90;;;;;;5035055;28;20037;-65
2023/07/10 03:50:41;;;;;;;5.82;3.63;;;20.60;99.90;;;;;;5027222;28;20084;-64
2023/07/10 03:53:07;;;;;;;5.15;3.30;;;20.50;99.90;;;;;;5026349;28;20049;-65
2023/07/10 03:55:32;;;;;;;4.82;3.70;;;20.50;99.90;;;;;;5028357;28;20038;-65
2023/07/10 03:57:58;;;;;;;4.80;3.17;;;20.50;99.90;;;;;;5023372;28;20045;-65
2023/07/10 04:00:24;;;;;;;5.57;3.42;;;;;;;;;;5019066;28;20040;-65
2023/07/10 04:02:50;;;;;;;4.78;2.97;;;;;;;;;;5019141;28;20045;-65
2023/07/10 04:05:16;;;;;;;4.85;2.50;;;;;;;;;;5028589;28;20051;-65
2023/07/10 04:07:43;;;;;;;4.40;2.88;;;;;;;;;;5029199;28;21418;-65
2023/07/10 04:10:09;;;;;;;5.43;2.63;;;;;;;;;;5044903;28;20052;-65
2023/07/10 04:12:35;;;;;;;4.90;2.90;;;;;;;;;;5025693;28;20073;-65
2023/07/10 04:15:01;;;;;;;4.78;2.90;;;20.50;99.90;;;;;;5022321;28;20072;-65
2023/07/10 04:17:27;;;;;;;5.43;3.17;;;;;;;;;;5025072;28;20065;-65
2023/07/10 04:19:53;;;;;;;4.05;2.70;;;;;;;;;;5024107;28;20813;-65
2023/07/10 04:22:19;;;;;;;4.43;2.78;;;;;;;;;;5024160;28;20046;-65
2023/07/10 04:24:45;;;;;;;5.50;2.67;;;;;;;;;;5023619;28;20183;-65
2023/07/10 04:27:11;;;;;;;4.53;2.53;;;;;;;;;;5025537;28;20045;-65
2023/07/10 04:29:38;;;;;;;4.55;2.42;;;;;;;;;;5027087;28;20044;-65
2023/07/10 04:32:04;;;;;;;5.95;2.55;;;;;;;;;;5022716;28;20125;-65
2023/07/10 04:34:30;;;;;;;8.10;3.40;;;;;;;;;;5026729;28;20411;-64
2023/07/10 04:36:56;;;;;;;4.65;2.45;;;;;;;;;;5026914;28;20034;-65
2023/07/10 04:39:22;;;;;;;3.85;2.47;;;;;;;;;;5026407;28;20056;-65
2023/07/10 04:41:48;;;;;;;4.35;2.30;;;;;;;;;;5024590;28;20154;-65
2023/07/10 04:44:14;;;;;;;5.15;2.72;;;;;;;;;;5027621;28;20041;-65
2023/07/10 04:46:41;;;;;;;5.43;2.88;;;;;;;;;;5020659;28;20071;-64
2023/07/10 04:49:07;;;;;;;3.10;1.88;;;;;;;;;;5025099;28;20392;-64
2023/07/10 04:51:33;;;;;;;3.85;2.45;;;20.50;99.90;;;;;;5019076;28;20034;-64
2023/07/10 04:53:59;;;;;;;3.83;2.80;;;;;;;;;;5026945;28;20037;-64
2023/07/10 04:56:25;;;;;;;4.55;3.00;;;;;;;;;;5026882;28;20048;-64
2023/07/10 04:58:56;;;;;;;4.82;2.58;;;;;;;;;;5022050;28;20137;-65
2023/07/10 05:01:24;;;;;;;4.35;2.28;;;;;;;;;;5025542;28;20037;-65
2023/07/10 05:03:51;;;;;;;4.45;2.50;;;;;;;;;;5017856;28;20044;-64
2023/07/10 05:06:17;;;;;;;5.40;3.00;;;;;;;;;;5019570;28;20124;-64
2023/07/10 05:08:43;;;;;;;3.88;2.65;;;;;;;;;;5026196;28;20044;-64
2023/07/10 05:11:09;;;;;;;4.97;2.72;;;;;;;;;;5028207;28;20036;-64
2023/07/10 05:13:36;;;;;;;6.78;2.50;;;;;;;;;;5026022;28;20052;-65
2023/07/10 05:16:02;;;;;;;3.70;2.42;;;;;;;;;;5019797;28;20049;-64
2023/07/10 05:18:29;;;;;;;5.47;2.60;;;;;;;;;;5027694;28;20112;-64
2023/07/10 05:20:56;;;;;;;3.97;2.42;;;;;;;;;;5022834;28;20120;-64
2023/07/10 05:23:23;;;;;;;5.88;2.80;;;;;;;;;;5021602;28;20487;-65
2023/07/10 05:26:01;;;;;;;4.85;2.47;;;;;;;;;;5025802;28;20041;-65
2023/07/10 05:28:27;;;;;;;5.22;3.08;;;;;;;;;;5023886;28;20044;-64
2023/07/10 05:30:54;;;;;;;4.00;2.38;;;;;;;;;;5026509;28;20033;-65
2023/07/10 05:33:21;;;;;;;4.63;2.42;;;;;;;;;;5020509;28;20048;-65
2023/07/10 05:35:54;;;;;;;5.60;2.78;;;;;;;;;;5021294;28;20041;-65
2023/07/10 05:38:21;;;;;;;4.88;2.63;;;;;;;;;;5018464;28;20041;-64
2023/07/10 05:40:48;;;;;;;8.15;2.72;;;;;;;;;;5010620;28;20037;-64
2023/07/10 05:43:14;;;;;;;5.80;2.80;;;;;;;;;;5019077;28;20033;-64
2023/07/10 05:45:40;;;;;;;5.13;2.35;;;;;;;;;;5022175;28;20068;-64
2023/07/10 05:48:06;;;;;;;9.43;3.20;;;;;;;;;;5024395;28;20043;-64
2023/07/10 05:50:32;;;;;;;6.47;3.25;;;;;;;;;;5022248;28;20064;-64
2023/07/10 05:52:59;;;;;;;4.55;2.67;;;;;;;;;;5009745;28;20056;-64
2023/07/10 05:55:25;;;;;;;4.82;2.20;;;;;;;;;;5019749;28;20041;-65
2023/07/10 05:57:51;;;;;;;7.13;3.95;;;;;;;;;;5019212;28;21299;-65
2023/07/10 06:00:17;;;;;;;5.10;2.65;;;;;;;;;;5011783;28;20056;-65
2023/07/10 06:02:43;;;;;;;4.57;2.38;;;;;;;;;;5008210;28;20105;-64
2023/07/10 06:05:09;;;;;;;10.27;2.70;;;;;;;;;;5018494;28;20038;-65
2023/07/10 06:07:35;;;;;;;6.72;3.47;;;;;;;;;;5014013;28;20049;-64
2023/07/10 06:10:02;;;;;;;7.35;2.90;;;;;;;;;;5010021;28;20104;-64
2023/07/10 06:12:28;;;;;;;4.85;2.63;;;;;;;;;;5019715;28;20154;-65
2023/07/10 06:14:54;;;;;;;5.57;2.33;;;;;;;;;;5034655;28;20119;-65
2023/07/10 06:17:20;;;;;;;5.72;2.92;;;;;;;;;;5018072;28;20041;-64
2023/07/10 06:19:46;;;;;;;4.68;2.72;;;;;;;;;;5017740;28;20048;-65
2023/07/10 06:22:12;;;;;;;5.93;3.00;;;;;;;;;;5017992;28;20125;-64
2023/07/10 06:24:39;;;;;;;4.25;2.85;;;;;;;;;;4970593;28;20158;-64
2023/07/10 06:27:06;;;;;;;6.95;3.13;;;;;;;;;;4967689;28;20048;-64
2023/07/10 06:29:36;;;;;;;5.97;2.78;;;;;;;;;;5021065;28;20441;-65
2023/07/10 06:32:02;;;;;;;5.80;3.15;;;;;;;;;;5019113;28;20042;-64
2023/07/10 06:34:29;;;;;;;7.47;2.55;;;;;;;;;;5028477;28;20106;-64
2023/07/10 06:36:55;;;;;;;5.57;3.10;;;;;;;;;;5027379;28;20574;-64
2023/07/10 06:39:21;;;;;;;4.93;2.20;;;;;;;;;;5022970;28;20496;-64
2023/07/10 06:41:47;;;;;;;7.22;2.65;;;;;;;;;;5025115;28;20163;-66
2023/07/10 06:44:15;;;;;;;5.90;2.47;;;;;;;;;;5025246;28;20141;-64
2023/07/10 06:46:41;;;;;;;4.22;2.50;;;;;;;;;;5027726;28;20033;-64
2023/07/10 06:49:07;;;;;;;7.05;2.65;;;;;;;;;;5025746;28;20044;-64
2023/07/10 06:51:35;;;;;;;5.32;2.63;;;;;;;;;;5024634;28;20137;-64
2023/07/10 06:54:03;;;;;;;5.25;2.53;;;;;;;;;;5030179;28;20549;-64
2023/07/10 06:56:29;;;;;;;10.55;3.33;;;;;;;;;;5028914;28;20132;-64
2023/07/10 06:58:55;;;;;;;9.68;2.53;;;;;;;;;;5022545;28;20045;-64
2023/07/10 07:01:21;;;;;;;3.97;2.58;;;;;;;;;;5022042;28;20042;-64
2023/07/10 07:03:48;;;;;;;4.70;2.25;;;;;;;;;;5028118;28;20037;-64
2023/07/10 07:06:14;;;;;;;5.43;2.20;;;;;;;;;;5022359;28;20048;-64
2023/07/10 07:08:42;;;;;;;7.93;2.80;;;;;;;;;;5021840;28;20034;-64
2023/07/10 07:11:08;;;;;;;6.47;2.10;;;;;;;;;;5029082;28;20041;-64
2023/07/10 07:13:34;;;;;;;9.50;3.15;;;;;;;;;;5023829;28;20486;-64
2023/07/10 07:16:00;;;;;;;5.70;2.38;;;;;;;;;;5019002;28;20519;-64
2023/07/10 07:18:27;;;;;;;4.50;2.58;;;;;;;;;;5023030;28;20125;-64
2023/07/10 07:20:53;;;;;;;5.13;2.17;;;;;;;;;;5028449;28;20046;-64
2023/07/10 07:23:19;;;;;;;8.68;2.72;;;20.40;99.90;;;;;;5022946;28;20056;-64
2023/07/10 07:25:45;;;;;;;8.73;2.95;;;;;;;;;;5025952;28;20351;-64
2023/07/10 07:28:12;;;;;;;4.40;2.28;;;;;;;;;;5001572;28;20084;-64
2023/07/10 07:30:39;;;;;;;5.78;2.35;;;;;;;;;;5022006;28;20040;-64
2023/07/10 07:33:05;;;;;;;6.85;2.55;;;;;;;;;;5021217;28;20060;-64
2023/07/10 07:35:32;;;;;;;4.65;2.83;;;;;;;;;;5018082;28;20124;-64
2023/07/10 07:37:58;;;;;;;6.50;2.70;;;;;;;;;;5024572;28;20044;-65
2023/07/10 07:40:24;;;;;;;8.30;3.13;;;;;;;;;;5027046;28;20108;-64
2023/07/10 07:42:51;;;;;;;7.35;2.88;;;;;;;;;;5027935;28;20033;-64
2023/07/10 07:45:17;;;;;;;4.53;2.65;;;;;;;;;;5036353;28;20519;-64
2023/07/10 07:47:43;;;;;;;12.43;3.53;;;;;;;;;;5024518;28;20033;-64
2023/07/10 07:50:10;;;;;;;8.25;2.67;;;;;;;;;;5021267;28;20099;-64
2023/07/10 07:52:36;;;;;;;8.77;2.85;;;;;;;;;;5022794;28;20163;-64
2023/07/10 07:55:03;;;;;;;9.35;2.75;;;;;;;;;;5034418;28;20480;-64
2023/07/10 07:57:29;;;;;;;6.53;2.92;;;;;;;;;;5025790;28;20524;-64
2023/07/10 07:59:55;;;;;;;6.22;2.33;;;;;;;;;;5017514;28;20585;-64
2023/07/10 08:02:21;;;;;;;10.15;3.63;;;;;;;;;;5019798;28;20123;-64
2023/07/10 08:04:48;;;;;;;7.03;2.95;;;;;;;;;;5029450;28;20041;-63
2023/07/10 08:07:14;;;;;;;7.30;2.17;;;;;;;;;;5027038;28;20072;-64
2023/07/10 08:09:40;;;;;;;6.65;2.58;;;;;;;;;;5025387;28;20225;-64
2023/07/10 08:12:06;;;;;;;7.28;2.53;;;;;;;;;;5026006;28;20040;-64
2023/07/10 08:14:32;;;;;;;9.30;2.90;;;;;;;;;;5024424;28;20763;-64
2023/07/10 08:16:59;;;;;;;7.45;3.17;;;;;;;;;;5026920;28;20459;-64
2023/07/10 08:19:25;;;;;;;7.55;3.42;;;;;;;;;;5025454;28;20048;-64
2023/07/10 08:21:51;;;;;;;8.32;3.40;;;;;;;;;;5026061;28;20593;-64
2023/07/10 08:24:17;;;;;;;6.55;3.22;;;;;;;;;;5024778;28;20103;-64
2023/07/10 08:26:43;;;;;;;7.25;3.65;;;;;;;;;;5027619;28;20030;-64
2023/07/10 08:29:29;;;;;;;6.55;2.55;;;;;;;;;;5013154;28;20156;-64
2023/07/10 08:31:56;;;;;;;11.60;3.38;;;;;;;;;;5023522;28;20033;-63
2023/07/10 08:34:23;;;;;;;10.45;3.53;;;;;;;;;;5021522;28;20036;-63
2023/07/10 08:36:52;;;;;;;6.93;3.20;;;;;;;;;;5020345;28;20045;-64
2023/07/10 08:39:19;;;;;;;4.93;3.05;;;;;;;;;;5022277;28;20187;-64
2023/07/10 08:41:49;;;;;;;7.57;3.13;;;;;;;;;;5019148;28;20034;-64
2023/07/10 08:44:15;;;;;;;9.77;2.80;;;;;;;;;;5020484;28;20034;-64
2023/07/10 08:46:43;;;;;;;8.60;2.90;;;;;;;;;;5020688;28;20038;-64
2023/07/10 08:49:26;;;;;;;7.93;3.22;;;;;;;;;;5020244;28;20358;-64
2023/07/10 08:51:52;;;;;;;10.75;3.25;;;;;;;;;;5023949;28;20053;-63
2023/07/10 08:54:18;;;;;;;7.57;3.40;;;;;;;;;;5022431;28;20870;-64
2023/07/10 08:56:50;;;;;;;5.90;3.25;;;;;;;;;;5008043;28;20063;-63
2023/07/10 08:59:22;;;;;;;7.13;3.42;;;;;;;;;;5021449;28;20102;-63
2023/07/10 09:01:49;;;;;;;5.50;2.85;;;;;;;;;;5015756;28;20044;-63
2023/07/10 09:04:17;;;;;;;7.50;3.25;;;;;;;;;;5009562;28;20348;-64
2023/07/10 09:06:46;;;;;;;11.23;3.67;;;;;;;;;;5024026;28;20533;-64
2023/07/10 09:09:24;;;;;;;7.35;3.22;;;;;;;;;;5021357;28;20060;-64
2023/07/10 09:11:51;;;;;;;9.00;2.95;;;;;;;;;;5020375;28;20057;-64
2023/07/10 09:14:25;;;;;;;8.13;4.05;;;;;;;;;;5023130;28;20037;-64
2023/07/10 09:16:52;;;;;;;7.97;2.83;;;;;;;;;;5022792;28;20128;-64
2023/07/10 09:19:19;;;;;;;11.55;3.80;;;;;;;;;;5021539;28;20037;-64
2023/07/10 09:21:46;;;;;;;7.20;2.92;;;;;;;;;;5022451;28;20060;-64
2023/07/10 09:24:15;;;;;;;6.75;3.22;;;;;;;;;;5021594;28;20190;-64
2023/07/10 09:26:42;;;;;;;10.65;4.22;;;;;;;;;;5024576;28;20052;-64
2023/07/10 09:29:11;;;;;;;6.65;3.28;;;;;;;;;;5019245;28;20044;-64
2023/07/10 09:31:49;;;;;;;11.73;3.83;;;;;;;;;;5022967;28;20065;-63
2023/07/10 09:34:20;;;;;;;7.30;3.15;;;;;;;;;;5020920;28;20037;-64
2023/07/10 09:36:50;;;;;;;4.85;2.72;;;;;;;;;;5021444;28;20033;-64
2023/07/10 09:39:16;;;;;;;5.40;2.53;;;;;;;;;;5020679;28;20065;-64
2023/07/10 09:41:43;;;;;;;6.22;2.95;;;;;;;;;;5024484;28;20034;-63
2023/07/10 09:44:17;;;;;;;4.88;2.80;;;;;;;;;;5021760;28;20041;-63
2023/07/10 09:46:43;;;;;;;7.10;3.25;;;;;;;;;;5020585;28;20503;-63
2023/07/10 09:49:14;;;;;;;10.32;3.45;;;;;;;;;;5018905;28;20038;-64
2023/07/10 09:52:00;;;;;;;6.60;3.15;;;;;;;;;;5021200;28;20508;-63
2023/07/10 09:54:35;;;;;;;9.65;3.22;;;;;;;;;;5022929;28;20109;-63
2023/07/10 09:57:03;;;;;;;5.88;2.85;;;;;;;;;;5023278;28;20090;-64
2023/07/10 09:59:31;;;;;;;6.30;2.60;;;;;;;;;;5019285;28;20074;-63
2023/07/10 10:02:03;;;;;;;6.03;3.05;;;;;;;;;;5012686;28;20161;-64
2023/07/10 10:04:32;;;;;;;6.57;3.35;;;;;;;;;;5018639;28;20030;-63
2023/07/10 10:07:03;;;;;;;10.45;2.85;;;;;;;;;;5021268;28;20116;-63
2023/07/10 10:09:30;;;;;;;9.25;3.40;;;;;;;;;;5016049;28;20427;-63
2023/07/10 10:12:01;;;;;;;7.28;3.45;;;;;;;;;;5021134;28;20051;-64
2023/07/10 10:14:44;;;;;;;6.87;2.80;;;21.30;99.90;;;;;;5018326;28;20716;-64
2023/07/10 10:17:14;;;;;;;8.52;2.80;;;24.90;98.10;;;;;;5020571;28;20049;-64
2023/07/10 10:19:53;;;;;;;6.30;3.50;;;24.90;98.00;;;;;;5032198;28;20054;-64
2023/07/10 10:22:29;;;;;;;5.35;2.78;;;24.80;97.60;;;;;;5011704;28;20087;-64
2023/07/10 10:24:55;;;;;;;5.35;3.80;;;24.80;97.70;;;;;;5036226;28;20065;-64
2023/07/10 10:28:05;;;;;;;10.07;3.38;;;24.90;97.60;;;;;;5030523;28;20037;-64
2023/07/10 10:30:38;;;;;;;9.38;2.85;;;24.90;97.30;;;;;;5019406;28;20664;-63
2023/07/10 10:33:27;;;;;;;10.20;3.55;;;25.00;97.40;;;;;;4987481;28;20048;-63
2023/07/10 10:36:04;;;;;;;3.85;2.38;;;;;;;;;;4972365;28;20878;-64
2023/07/10 10:38:35;;;;;;;6.20;3.40;;;;;;;;;;5011911;28;20061;-64
2023/07/10 10:41:35;;;;;;;6.43;3.35;;;25.00;97.30;;;;;;5018457;28;20128;-63
2023/07/10 10:44:29;;;;;;;6.13;2.35;;;25.30;97.60;;;;;;5023283;28;20052;-63
2023/07/10 10:47:31;;;;;;;6.78;2.85;;;25.30;97.00;;;;;;5020077;28;20117;-64
2023/07/10 10:50:11;;;;;;;6.55;3.25;;;25.40;96.90;;;;;;5019329;28;20049;-64
2023/07/10 10:53:05;;;;;;;6.60;2.88;;;25.40;97.00;;;;;;5016373;28;20052;-64
2023/07/10 10:55:47;;;;;;;8.07;2.50;;;25.40;96.80;;;;;;5020556;28;20103;-64
2023/07/10 10:58:13;;;;;;;6.43;2.65;;;25.50;96.70;;;;;;5024010;28;20049;-64
2023/07/10 11:01:23;;;;;;;6.28;2.72;;;25.60;96.60;;;;;;5023256;28;20486;-64
2023/07/10 11:03:58;;;;;;;7.18;2.78;;;25.60;96.30;;;;;;5022031;28;20122;-64
2023/07/10 11:06:48;;;;;;;8.02;2.67;;;25.70;95.60;;;;;;5021651;28;20041;-64
2023/07/10 11:09:22;;;;;;;6.25;2.97;;;25.70;95.80;;;;;;5022675;28;20156;-64
2023/07/10 11:11:48;;;;;;;8.35;3.05;;;25.70;95.40;;;;;;5019916;28;20103;-64
2023/07/10 11:14:14;;;;;;;5.10;2.90;;;25.70;95.60;;;;;;5017509;28;20038;-64
2023/07/10 11:16:41;;;;;;;5.03;2.67;;;25.80;95.50;;;;;;5017324;28;20095;-64
2023/07/10 11:19:15;;;;;;;5.50;2.50;;;25.80;95.30;;;;;;5025086;28;20096;-64
2023/07/10 11:21:41;;;;;;;7.80;2.40;;;25.80;95.30;;;;;;5023782;28;20045;-64
2023/07/10 11:24:34;;;;;;;5.50;2.75;;;25.90;95.10;;;;;;5022924;28;20053;-64
2023/07/10 11:27:26;;;;;;;7.35;2.35;;;26.00;94.90;;;;;;5022822;28;20040;-64
2023/07/10 11:30:06;;;;;;;6.55;2.35;;;26.10;94.20;;;;;;5020489;28;20085;-64
2023/07/10 11:32:53;;;;;;;6.70;2.70;;;26.10;94.50;;;;;;5020233;28;20503;-64
2023/07/10 11:35:20;;;;;;;8.45;2.97;;;;;;;;;;5025401;28;20624;-64
2023/07/10 11:37:49;;;;;;;4.72;2.15;;;;;;;;;;5024688;28;20049;-66
2023/07/10 11:40:24;;;;;;;6.85;2.80;;;;;;;;;;5024642;28;20157;-64
2023/07/10 11:42:51;;;;;;;5.43;2.38;;;;;;;;;;5040200;28;20496;-64
2023/07/10 11:45:17;;;;;;;6.45;2.15;;;;;;;;;;5023113;28;20048;-64
2023/07/10 11:47:44;;;;;;;3.40;1.90;;;;;;;;;;5020391;28;20037;-64
2023/07/10 11:50:22;;;;;;;4.40;2.05;;;;;;;;;;5021811;28;20045;-64
2023/07/10 11:53:04;;;;;;;3.50;2.05;;;;;;;;;;5023075;28;20045;-64
2023/07/10 11:55:30;;;;;;;6.65;2.35;;;;;;;;;;4989495;28;20056;-64
2023/07/10 11:58:17;;;;;;;7.85;3.38;;;;;;;;;;4999375;28;20052;-64
2023/07/10 12:00:43;;;;;;;7.32;2.08;;;;;;;;;;5016745;28;20049;-64
2023/07/10 12:03:09;;;;;;;5.78;2.50;;;;;;;;;;5025783;28;20200;-64
2023/07/10 12:05:37;;;;;;;6.10;2.40;;;;;;;;;;5023711;28;20091;-65
2023/07/10 12:08:09;;;;;;;5.80;2.67;;;;;;;;;;5036154;28;20029;-64
2023/07/10 12:10:35;;;;;;;;;;;;;;;;;;5023907;28;20048;-64
2023/07/10 12:13:01;;;;;;;7.60;2.53;;;;;;;;;;5023519;28;19917;-64
2023/07/10 12:15:28;;;;;;;4.68;2.50;;;;;;;;;;5023652;28;20056;-65
2023/07/10 12:17:55;;;;;;;5.50;1.92;;;;;;;;;;5023740;28;20131;-64
2023/07/10 12:20:22;;;;;;;5.93;2.17;;;;;;;;;;5018956;28;20122;-64
2023/07/10 12:22:48;;;;;;;6.28;2.00;;;;;;;;;;5023268;28;20134;-64
2023/07/10 12:25:16;;;;;;;5.68;1.90;;;;;;;;;;5024099;28;20845;-64
2023/07/10 12:27:42;;;;;;;4.68;2.10;;;;;;;;;;5019663;28;20045;-65
2023/07/10 12:30:14;;;;;;;6.47;2.08;;;;;;;;;;5024951;28;20228;-64
2023/07/10 12:32:40;;;;;;;8.45;2.60;;;;;;;;;;5023324;28;20458;-64
2023/07/10 12:35:13;;;;;;;3.00;1.80;;;;;;;;;;5025233;28;20148;-64
2023/07/10 12:37:41;;;;;;;5.00;1.90;;;;;;;;;;5028765;28;20044;-64
2023/07/10 12:40:12;;;;;;;2.80;1.60;;;;;;;;;;5023902;28;20132;-64
2023/07/10 12:42:39;;;;;;;3.75;1.60;;;;;;;;;;5016475;28;20033;-64
2023/07/10 12:45:15;;;;;;;5.32;1.52;;;;;;;;;;4996069;28;20598;-65
2023/07/10 12:47:45;;;;;;;5.65;1.92;;;;;;;;;;5004504;28;20075;-62
2023/07/10 12:50:11;;;;;;;4.30;1.55;;;;;;;;;;5036102;28;20415;-63
2023/07/10 12:52:38;;;;;;;5.22;1.63;;;;;;;;;;5001105;28;20079;-63
2023/07/10 12:55:06;;;;;;;29.17;4.90;;;;;;;;;;5021852;28;20176;-60
2023/07/10 12:57:34;;;;;;;10.88;2.50;;;;;;;;;;5029044;28;20180;-65
2023/07/10 13:00:11;;;;;;;107.13;16.85;;;;;;;;;;5024757;28;20409;-65
2023/07/10 13:02:39;;;;;;;29.17;5.80;;;;;;;;;;5016240;28;22040;-67
2023/07/10 13:05:14;;;;;;;17.70;3.40;;;;;;;;;;5027469;28;20068;-65
2023/07/10 13:07:41;;;;;;;4.53;2.35;;;;;;;;;;5024410;28;20502;-67
2023/07/10 13:10:14;;;;;;;5.93;2.00;;;;;;;;;;5020626;28;20044;-61
2023/07/10 13:12:40;;;;;;;6.10;2.08;;;26.20;94.50;;;;;;5023761;28;20045;-64
2023/07/10 13:15:11;;;;;;;4.22;2.08;;;26.70;82.40;;;;;;5011608;28;20154;-67
2023/07/10 13:17:43;;;;;;;4.22;1.85;;;26.60;82.30;;;;;;5014813;28;20029;-61
2023/07/10 13:20:39;;;;;;;3.83;1.63;;;;;;;;;;5036856;28;20391;-60
2023/07/10 13:23:06;;;;;;;4.15;1.60;;;;;;;;;;5016818;28;20647;-63
2023/07/10 13:25:34;;;;;;;5.32;2.03;;;26.50;81.00;;;;;;5017062;28;20151;-66
2023/07/10 13:28:21;;;;;;;5.78;2.20;;;26.40;80.50;;;;;;5016327;28;20037;-66
2023/07/10 13:30:48;;;;;;;5.75;1.80;;;26.40;79.70;;;;;;5019568;28;20045;-66
2023/07/10 13:33:23;;;;;;;4.40;2.03;;;26.40;79.90;;;;;;5032379;28;20044;-66
2023/07/10 13:35:53;;;;;;;5.18;1.80;;;26.30;79.50;;;;;;5018653;28;20056;-66
2023/07/10 13:38:19;;;;;;;4.40;1.65;;;26.30;79.50;;;;;;5021592;28;20135;-66
2023/07/10 13:40:45;;;;;;;3.03;1.60;;;26.30;79.40;;;;;;5024105;28;20531;-66
2023/07/10 13:43:22;;;;;;;5.35;1.63;;;26.30;79.00;;;;;;5006454;28;20049;-63
2023/07/10 13:45:59;;;;;;;4.32;1.98;;;26.30;78.20;;;;;;5013187;28;20380;-63
2023/07/10 13:48:27;;;;;;;5.75;2.22;;;26.30;78.90;;;;;;5015798;28;20037;-66
2023/07/10 13:50:53;;;;;;;9.43;2.15;;;26.30;78.40;;;;;;5008522;28;20144;-65
2023/07/10 13:53:21;;;;;;;5.43;1.77;;;26.20;78.10;;;;;;5022652;28;20077;-64
2023/07/10 13:55:49;;;;;;;3.95;1.83;;;26.20;77.80;;;;;;5028509;28;20125;-65
2023/07/10 13:58:20;;;;;;;3.40;1.75;;;26.20;78.30;;;;;;5023210;28;20033;-64
2023/07/10 14:00:47;;;;;;;4.53;1.58;;;26.20;77.80;;;;;;5016224;28;20095;-65
2023/07/10 14:03:15;;;;;;;4.28;1.73;;;26.20;77.30;;;;;;5015760;28;20033;-65
2023/07/10 14:05:43;;;;;;;7.35;2.13;;;26.20;76.80;;;;;;5019588;28;20042;-66
2023/07/10 14:08:15;;;;;;;4.13;1.30;;;26.10;76.00;;;;;;5007091;28;20176;-65
2023/07/10 14:10:41;;;;;;;4.03;1.63;;;26.10;74.80;;;;;;5005619;28;20045;-65
2023/07/10 14:13:11;;;;;;;6.90;1.17;;;26.10;74.90;;;;;;4995082;28;20379;-65
2023/07/10 14:15:40;;;;;;;5.80;1.80;;;26.10;74.00;;;;;;5001637;28;20046;-65
2023/07/10 14:18:28;;;;;;;3.63;1.98;;;26.10;74.60;;;;;;5022631;28;20660;-65
2023/07/10 14:20:54;;;;;;;3.90;1.48;;;26.10;74.40;;;;;;5034451;28;20037;-65
2023/07/10 14:23:25;;;;;;;5.28;1.77;;;26.10;74.70;;;;;;5034386;28;20104;-65
2023/07/10 14:25:52;;;;;;;6.75;1.90;;;26.20;75.20;;;;;;5020910;28;20069;-65